createdAt,value
2023-05-17T00:02:08.165Z,96518.25
2023-05-17T00:04:35.102Z,96543.91
2023-05-17T00:07:02.034Z,96502.09
2023-05-17T00:09:29.078Z,96531.56
2023-05-17T00:11:58.745Z,96538.00
2023-05-17T00:14:25.905Z,96531.09
2023-05-17T00:16:52.942Z,96510.09
2023-05-17T00:19:20.150Z,96535.94
2023-05-17T00:21:47.174Z,96551.97
2023-05-17T00:24:14.092Z,96519.94
2023-05-17T00:26:41.128Z,96532.28
2023-05-17T00:29:08.157Z,96550.44
2023-05-17T00:31:35.613Z,96514.66
2023-05-17T00:34:02.545Z,96560.81
2023-05-17T00:36:29.473Z,96562.28
2023-05-17T00:38:56.354Z,96559.59
2023-05-17T00:41:23.263Z,96526.06
2023-05-17T00:43:50.201Z,96559.09
2023-05-17T00:46:17.076Z,96568.03
2023-05-17T00:48:44.516Z,96563.75
2023-05-17T00:51:12.489Z,96541.97
2023-05-17T00:53:39.741Z,96546.44
2023-05-17T00:56:07.078Z,96528.03
2023-05-17T00:58:34.290Z,96525.91
2023-05-17T01:01:02.078Z,96549.66
2023-05-17T01:03:29.243Z,96552.53
2023-05-17T01:05:56.264Z,96540.28
2023-05-17T01:08:23.192Z,96510.97
2023-05-17T01:11:11.372Z,96549.25
2023-05-17T01:13:59.173Z,96537.84
2023-05-17T01:16:33.052Z,96491.56
2023-05-17T01:19:17.350Z,96515.44
2023-05-17T01:22:15.880Z,96542.81
2023-05-17T01:24:47.798Z,96536.88
2023-05-17T01:27:15.965Z,96544.47
2023-05-17T01:29:44.994Z,96517.47
2023-05-17T01:32:13.852Z,96550.03
2023-05-17T01:34:41.872Z,96555.00
2023-05-17T01:37:08.768Z,96523.50
2023-05-17T01:39:36.604Z,96537.03
2023-05-17T01:42:10.197Z,96571.38
2023-05-17T01:44:50.700Z,96571.84
2023-05-17T01:47:33.137Z,96522.50
2023-05-17T01:50:01.131Z,96577.66
2023-05-17T01:52:54.124Z,96578.28
2023-05-17T01:55:33.085Z,96582.75
2023-05-17T01:58:04.141Z,96562.38
2023-05-17T02:00:31.798Z,96585.31
2023-05-17T02:02:58.782Z,96591.88
2023-05-17T02:05:25.787Z,96580.41
2023-05-17T02:07:52.688Z,96508.31
2023-05-17T02:10:19.603Z,96490.09
2023-05-17T02:12:46.489Z,96559.59
2023-05-17T02:15:14.015Z,96541.06
2023-05-17T02:17:41.240Z,96592.13
2023-05-17T02:20:09.779Z,96595.06
2023-05-17T02:22:36.735Z,96588.81
2023-05-17T02:25:03.712Z,96598.06
2023-05-17T02:27:31.055Z,96585.53
2023-05-17T02:29:59.716Z,96579.38
2023-05-17T02:32:27.487Z,96601.63
2023-05-17T02:34:55.070Z,96575.59
2023-05-17T02:37:23.512Z,96595.41
2023-05-17T02:39:50.481Z,96588.50
2023-05-17T02:42:17.768Z,96581.63
2023-05-17T02:44:44.789Z,96574.44
2023-05-17T02:47:11.712Z,96560.13
2023-05-17T02:49:38.932Z,96584.63
2023-05-17T02:52:06.147Z,96571.78
2023-05-17T02:54:34.028Z,96556.03
2023-05-17T02:57:01.485Z,96567.16
2023-05-17T02:59:28.419Z,96545.63
2023-05-17T03:01:55.421Z,96581.94
2023-05-17T03:04:22.496Z,96570.50
2023-05-17T03:06:51.079Z,96537.59
2023-05-17T03:09:19.077Z,96586.63
2023-05-17T03:11:48.596Z,96597.03
2023-05-17T03:14:21.107Z,96589.19
2023-05-17T03:16:49.470Z,96578.38
2023-05-17T03:19:17.094Z,96616.75
2023-05-17T03:21:44.971Z,96579.19
2023-05-17T03:24:12.623Z,96598.59
2023-05-17T03:26:40.345Z,96591.53
2023-05-17T03:29:09.292Z,96613.06
2023-05-17T03:31:36.894Z,96613.72
2023-05-17T03:34:03.893Z,96591.41
2023-05-17T03:36:31.661Z,96620.41
2023-05-17T03:38:58.696Z,96582.44
2023-05-17T03:41:25.959Z,96622.94
2023-05-17T03:43:52.985Z,96568.16
2023-05-17T03:46:21.295Z,96621.47
2023-05-17T03:48:49.307Z,96605.88
2023-05-17T03:51:17.342Z,96640.03
2023-05-17T03:53:44.507Z,96645.53
2023-05-17T03:56:11.470Z,96650.28
2023-05-17T03:58:38.649Z,96650.44
2023-05-17T04:01:06.061Z,96630.88
2023-05-17T04:03:33.893Z,96617.38
2023-05-17T04:06:06.488Z,96662.19
2023-05-17T04:08:35.319Z,96658.91
2023-05-17T04:11:10.738Z,96633.22
2023-05-17T04:13:38.109Z,96645.31
2023-05-17T04:16:05.444Z,96609.34
2023-05-17T04:18:36.394Z,96655.03
2023-05-17T04:21:04.322Z,96654.97
2023-05-17T04:23:33.624Z,96664.25
2023-05-17T04:26:00.668Z,96639.28
2023-05-17T04:28:29.740Z,96649.69
2023-05-17T04:30:57.014Z,96673.44
2023-05-17T04:33:24.996Z,96637.13
2023-05-17T04:35:55.042Z,96647.09
2023-05-17T04:38:23.894Z,96675.38
2023-05-17T04:40:51.644Z,96664.75
2023-05-17T04:43:18.985Z,96679.47
2023-05-17T04:45:46.899Z,96664.56
2023-05-17T04:48:16.625Z,96692.78
2023-05-17T04:50:47.430Z,96691.13
2023-05-17T04:53:16.028Z,96666.47
2023-05-17T04:55:43.178Z,96675.78
2023-05-17T04:58:10.392Z,96667.53
2023-05-17T05:00:38.327Z,96674.16
2023-05-17T05:03:07.809Z,96695.84
2023-05-17T05:05:35.918Z,96691.19
2023-05-17T05:08:02.931Z,96668.72
2023-05-17T05:10:30.731Z,96714.31
2023-05-17T05:12:58.541Z,96689.47
2023-05-17T05:15:25.627Z,96710.94
2023-05-17T05:17:56.724Z,96697.56
2023-05-17T05:20:25.863Z,96686.09
2023-05-17T05:22:57.633Z,96716.69
2023-05-17T05:25:24.970Z,96701.69
2023-05-17T05:27:51.963Z,96733.41
2023-05-17T05:30:22.662Z,96732.34
2023-05-17T05:32:53.260Z,96728.94
2023-05-17T05:35:20.760Z,96710.56
2023-05-17T05:37:47.692Z,96742.31
2023-05-17T05:40:15.346Z,96743.97
2023-05-17T05:42:42.508Z,96740.66
2023-05-17T05:45:10.692Z,96727.84
2023-05-17T05:47:38.476Z,96753.75
2023-05-17T05:50:07.034Z,96740.25
2023-05-17T05:52:35.391Z,96723.78
2023-05-17T05:55:02.352Z,96738.19
2023-05-17T05:57:29.477Z,96759.22
2023-05-17T05:59:56.367Z,96734.09
2023-05-17T06:02:24.177Z,96766.59
2023-05-17T06:04:51.280Z,96776.22
2023-05-17T06:07:18.584Z,96777.97
2023-05-17T06:09:45.504Z,96750.66
2023-05-17T06:12:12.454Z,96776.94
2023-05-17T06:14:39.310Z,96764.66
2023-05-17T06:17:06.874Z,96778.94
2023-05-17T06:19:34.003Z,96783.50
2023-05-17T06:22:01.012Z,96780.22
2023-05-17T06:24:27.900Z,96795.91
2023-05-17T06:26:54.738Z,96793.88
2023-05-17T06:29:21.678Z,96769.75
2023-05-17T06:31:48.554Z,96769.66
2023-05-17T06:34:15.454Z,96769.25
2023-05-17T06:36:42.562Z,96788.63
2023-05-17T06:39:09.445Z,96792.66
2023-05-17T06:41:36.395Z,96762.84
2023-05-17T06:44:03.301Z,96764.50
2023-05-17T06:46:30.185Z,96780.16
2023-05-17T06:48:57.289Z,96781.53
2023-05-17T06:51:24.312Z,96786.88
2023-05-17T06:53:51.174Z,96793.59
2023-05-17T06:56:18.063Z,96795.75
2023-05-17T06:58:44.955Z,96771.31
2023-05-17T07:01:13.127Z,96783.69
2023-05-17T07:03:40.190Z,96773.66
2023-05-17T07:06:07.526Z,96759.81
2023-05-17T07:08:34.385Z,96791.75
2023-05-17T07:11:01.574Z,96789.63
2023-05-17T07:13:28.465Z,96766.72
2023-05-17T07:15:55.370Z,96786.78
2023-05-17T07:18:22.315Z,96781.53
2023-05-17T07:20:49.214Z,96804.50
2023-05-17T07:23:18.637Z,96778.63
2023-05-17T07:25:46.550Z,96787.16
2023-05-17T07:28:13.417Z,96786.59
2023-05-17T07:30:40.318Z,96801.03
2023-05-17T07:33:07.275Z,96808.97
2023-05-17T07:35:34.243Z,96814.06
2023-05-17T07:38:01.207Z,96808.00
2023-05-17T07:40:28.067Z,96785.63
2023-05-17T07:42:54.975Z,96804.72
2023-05-17T07:45:21.891Z,96794.97
2023-05-17T07:47:48.826Z,96811.50
2023-05-17T07:50:15.758Z,96829.00
2023-05-17T07:52:42.736Z,96835.47
2023-05-17T07:55:10.232Z,96804.75
2023-05-17T07:57:37.228Z,96849.00
2023-05-17T08:00:04.613Z,96844.09
2023-05-17T08:02:39.028Z,96840.69
2023-05-17T08:05:06.452Z,96838.16
2023-05-17T08:07:33.384Z,96818.16
2023-05-17T08:10:00.258Z,96834.59
2023-05-17T08:12:27.141Z,96841.97
2023-05-17T08:14:54.005Z,96822.16
2023-05-17T08:17:20.906Z,96823.53
2023-05-17T08:19:47.828Z,96837.66
2023-05-17T08:22:15.964Z,96806.41
2023-05-17T08:24:45.132Z,96853.69
2023-05-17T08:27:14.840Z,96798.19
2023-05-17T08:29:41.760Z,96843.47
2023-05-17T08:32:08.651Z,96832.31
2023-05-17T08:34:35.764Z,96859.81
2023-05-17T08:37:02.799Z,96853.75
2023-05-17T08:39:29.692Z,96839.97
2023-05-17T08:41:59.852Z,96869.00
2023-05-17T08:44:28.691Z,96860.28
2023-05-17T08:46:56.887Z,96856.50
2023-05-17T08:49:26.045Z,96852.00
2023-05-17T08:51:54.904Z,96864.53
2023-05-17T08:54:22.942Z,96840.72
2023-05-17T08:56:54.067Z,96856.81
2023-05-17T08:59:22.184Z,96839.22
2023-05-17T09:01:51.688Z,96844.56
2023-05-17T09:04:19.017Z,96869.97
2023-05-17T09:06:46.062Z,96845.44
2023-05-17T09:09:13.011Z,96835.84
2023-05-17T09:11:40.019Z,96821.22
2023-05-17T09:14:07.851Z,96862.78
2023-05-17T09:16:37.518Z,96880.06
2023-05-17T09:19:06.534Z,96883.75
2023-05-17T09:21:34.447Z,96859.34
2023-05-17T09:26:42.328Z,96881.47
2023-05-17T09:29:13.921Z,96887.84
2023-05-17T09:31:42.135Z,96883.50
2023-05-17T09:34:09.706Z,96896.09
2023-05-17T09:36:38.020Z,96896.31
2023-05-17T09:39:10.814Z,96897.38
2023-05-17T09:41:47.369Z,96888.78
2023-05-17T09:44:15.587Z,96888.09
2023-05-17T09:46:48.052Z,96914.38
2023-05-17T09:49:17.297Z,96911.03
2023-05-17T09:51:47.750Z,96914.78
2023-05-17T09:54:15.033Z,96888.69
2023-05-17T09:56:42.209Z,96892.81
2023-05-17T09:59:16.921Z,96919.75
2023-05-17T10:01:45.785Z,96919.56
2023-05-17T10:04:13.956Z,96911.09
2023-05-17T10:06:49.865Z,96906.38
2023-05-17T10:09:21.902Z,96914.84
2023-05-17T10:11:50.889Z,96912.56
2023-05-17T10:14:23.684Z,96894.97
2023-05-17T10:16:52.460Z,96906.56
2023-05-17T10:19:21.491Z,96883.66
2023-05-17T10:21:50.528Z,96906.34
2023-05-17T10:24:17.835Z,96890.34
2023-05-17T10:26:45.721Z,96906.06
2023-05-17T10:29:12.914Z,96897.13
2023-05-17T10:31:43.699Z,96916.63
2023-05-17T10:34:12.111Z,96913.16
2023-05-17T10:36:40.834Z,96906.97
2023-05-17T10:39:10.536Z,96916.84
2023-05-17T10:41:42.515Z,96892.78
2023-05-17T10:44:14.102Z,96909.47
2023-05-17T10:46:41.249Z,96916.66
2023-05-17T10:49:08.824Z,96891.53
2023-05-17T10:51:38.027Z,96912.53
2023-05-17T10:54:10.011Z,96918.78
2023-05-17T10:57:06.459Z,96901.47
2023-05-17T10:59:35.763Z,96904.72
2023-05-17T11:02:10.327Z,96905.34
2023-05-17T11:04:42.733Z,96888.28
2023-05-17T11:07:29.703Z,96899.09
2023-05-17T11:10:11.819Z,96870.09
2023-05-17T11:12:43.986Z,96881.66
2023-05-17T11:15:12.624Z,96882.97
2023-05-17T11:17:54.904Z,96879.16
2023-05-17T11:20:25.077Z,96873.22
2023-05-17T11:23:00.693Z,96870.69
2023-05-17T11:25:38.286Z,96858.78
2023-05-17T11:28:23.478Z,96824.22
2023-05-17T11:30:54.095Z,96852.94
2023-05-17T11:33:38.738Z,96869.47
2023-05-17T11:36:13.659Z,96879.28
2023-05-17T11:38:40.594Z,96859.75
2023-05-17T11:41:26.960Z,96880.81
2023-05-17T11:43:54.659Z,96879.44
2023-05-17T11:46:24.286Z,96835.41
2023-05-17T11:48:52.815Z,96857.38
2023-05-17T11:51:23.649Z,96882.69
2023-05-17T11:53:55.678Z,96873.34
2023-05-17T11:56:35.738Z,96878.31
2023-05-17T11:59:10.459Z,96875.44
2023-05-17T12:01:47.588Z,96874.38
2023-05-17T12:04:14.981Z,96879.94
2023-05-17T12:06:42.747Z,96877.25
2023-05-17T12:09:11.028Z,96861.25
2023-05-17T12:11:41.065Z,96877.34
2023-05-17T12:14:08.123Z,96811.53
2023-05-17T12:16:37.185Z,96852.22
2023-05-17T12:19:04.329Z,96871.13
2023-05-17T12:21:31.432Z,96879.38
2023-05-17T12:23:58.354Z,96861.69
2023-05-17T12:26:25.340Z,96875.81
2023-05-17T12:28:57.785Z,96878.97
2023-05-17T12:31:36.869Z,96868.38
2023-05-17T12:34:06.231Z,96872.94
2023-05-17T12:36:34.237Z,96879.03
2023-05-17T12:39:01.816Z,96850.84
2023-05-17T12:41:30.114Z,96883.06
2023-05-17T12:44:13.852Z,96871.06
2023-05-17T12:46:43.288Z,96883.09
2023-05-17T12:49:12.075Z,96854.59
2023-05-17T12:51:44.491Z,96864.72
2023-05-17T12:54:16.522Z,96883.66
2023-05-17T12:56:46.818Z,96873.09
2023-05-17T12:59:18.517Z,96860.50
2023-05-17T13:01:46.801Z,96895.63
2023-05-17T13:04:15.024Z,96900.28
2023-05-17T13:06:50.121Z,96888.66
2023-05-17T13:09:18.841Z,96891.38
2023-05-17T13:11:52.423Z,96908.28
2023-05-17T13:14:38.946Z,96911.59
2023-05-17T13:17:08.615Z,96886.66
2023-05-17T13:19:36.595Z,96897.72
2023-05-17T13:22:05.326Z,96903.03
2023-05-17T13:24:35.505Z,96894.84
2023-05-17T13:27:03.199Z,96909.06
2023-05-17T13:29:38.867Z,96897.09
2023-05-17T13:32:08.666Z,96891.59
2023-05-17T13:34:36.283Z,96908.06
2023-05-17T13:37:04.456Z,96908.06
2023-05-17T13:39:31.431Z,96876.22
2023-05-17T13:41:59.240Z,96903.09
2023-05-17T13:44:26.682Z,96901.34
2023-05-17T13:46:53.579Z,96866.88
2023-05-17T13:49:21.148Z,96874.63
2023-05-17T13:51:48.197Z,96892.50
2023-05-17T13:54:15.168Z,96853.66
2023-05-17T13:56:42.075Z,96865.13
2023-05-17T13:59:09.047Z,96902.50
2023-05-17T14:01:35.969Z,96878.50
2023-05-17T14:04:02.998Z,96864.38
2023-05-17T14:06:30.033Z,96899.03
2023-05-17T14:08:59.421Z,96890.31
2023-05-17T14:11:26.608Z,96879.97
2023-05-17T14:13:53.568Z,96876.25
2023-05-17T14:16:22.458Z,96893.41
2023-05-17T14:18:50.134Z,96888.84
2023-05-17T14:21:17.376Z,96871.97
2023-05-17T14:23:44.310Z,96871.41
2023-05-17T14:26:12.036Z,96830.34
2023-05-17T14:28:39.373Z,96876.25
2023-05-17T14:31:07.509Z,96880.22
2023-05-17T14:33:34.676Z,96868.09
2023-05-17T14:36:01.804Z,96891.50
2023-05-17T14:38:28.684Z,96882.97
2023-05-17T14:40:55.927Z,96871.03
2023-05-17T14:43:23.589Z,96885.09
2023-05-17T14:45:53.377Z,96893.22
2023-05-17T14:48:20.706Z,96887.66
2023-05-17T14:50:47.757Z,96875.59
2023-05-17T14:53:14.726Z,96900.06
2023-05-17T14:55:42.130Z,96902.59
2023-05-17T14:58:09.244Z,96905.34
2023-05-17T15:00:36.346Z,96880.41
2023-05-17T15:03:03.410Z,96887.91
2023-05-17T15:05:30.693Z,96891.84
2023-05-17T15:07:58.124Z,96880.72
2023-05-17T15:10:25.035Z,96882.84
2023-05-17T15:12:52.645Z,96880.63
2023-05-17T15:15:22.315Z,96876.78
2023-05-17T15:17:49.278Z,96865.41
2023-05-17T15:20:16.351Z,96877.38
2023-05-17T15:22:43.319Z,96888.63
2023-05-17T15:25:10.616Z,96890.44
2023-05-17T15:27:37.766Z,96898.84
2023-05-17T15:30:05.159Z,96877.78
2023-05-17T15:32:34.036Z,96909.59
2023-05-17T15:35:01.196Z,96892.63
2023-05-17T15:37:28.486Z,96869.25
2023-05-17T15:39:55.390Z,96866.78
2023-05-17T15:42:22.304Z,96880.25
2023-05-17T15:44:49.179Z,96869.28
2023-05-17T15:47:16.300Z,96854.38
2023-05-17T15:49:43.230Z,96880.81
2023-05-17T15:52:10.329Z,96879.84
2023-05-17T15:54:37.237Z,96864.47
2023-05-17T15:57:04.402Z,96864.56
2023-05-17T15:59:31.329Z,96872.53
2023-05-17T16:01:58.211Z,96864.94
2023-05-17T16:04:25.176Z,96864.94
2023-05-17T16:06:52.313Z,96841.06
2023-05-17T16:09:19.395Z,96830.28
2023-05-17T16:11:46.578Z,96839.16
2023-05-17T16:14:13.756Z,96846.63
2023-05-17T16:16:40.765Z,96838.13
2023-05-17T16:19:10.121Z,96872.78
2023-05-17T16:21:37.350Z,96889.69
2023-05-17T16:24:06.663Z,96875.56
2023-05-17T16:26:35.648Z,96870.31
2023-05-17T16:29:02.489Z,96884.81
2023-05-17T16:31:29.480Z,96890.28
2023-05-17T16:33:56.640Z,96892.44
2023-05-17T16:36:24.645Z,96878.44
2023-05-17T16:38:52.743Z,96884.41
2023-05-17T16:41:19.700Z,96904.19
2023-05-17T16:43:48.012Z,96897.00
2023-05-17T16:46:14.899Z,96877.69
2023-05-17T16:48:42.030Z,96869.03
2023-05-17T16:51:08.983Z,96892.88
2023-05-17T16:53:35.925Z,96898.09
2023-05-17T16:56:02.963Z,96902.75
2023-05-17T16:58:30.111Z,96907.72
2023-05-17T17:00:57.614Z,96893.25
2023-05-17T17:03:24.728Z,96897.44
2023-05-17T17:05:51.763Z,96884.09
2023-05-17T17:08:18.739Z,96889.13
2023-05-17T17:10:45.786Z,96913.28
2023-05-17T17:13:12.698Z,96912.34
2023-05-17T17:15:39.852Z,96883.16
2023-05-17T17:18:07.234Z,96902.13
2023-05-17T17:20:34.149Z,96919.38
2023-05-17T17:23:01.169Z,96907.75
2023-05-17T17:25:28.299Z,96906.19
2023-05-17T17:27:55.366Z,96900.50
2023-05-17T17:30:22.427Z,96916.97
2023-05-17T17:32:52.303Z,96919.63
2023-05-17T17:35:19.452Z,96929.75
2023-05-17T17:37:46.464Z,96933.78
2023-05-17T17:40:33.661Z,96935.66
2023-05-17T17:43:00.580Z,96912.03
2023-05-17T17:45:27.576Z,96937.69
2023-05-17T17:47:54.512Z,96949.66
2023-05-17T17:50:22.063Z,96949.66
2023-05-17T17:52:50.728Z,96935.81
2023-05-17T17:55:17.644Z,96954.16
2023-05-17T17:57:44.589Z,96932.06
2023-05-17T18:00:13.258Z,96954.78
2023-05-17T18:02:40.241Z,96925.47
2023-05-17T18:05:07.519Z,96941.69
2023-05-17T18:07:34.565Z,96959.72
2023-05-17T18:10:02.186Z,96941.59
2023-05-17T18:12:29.588Z,96966.06
2023-05-17T18:14:56.527Z,96966.97
2023-05-17T18:17:23.552Z,96970.53
2023-05-17T18:19:50.607Z,96938.31
2023-05-17T18:22:17.712Z,96958.75
2023-05-17T18:24:45.732Z,96970.53
2023-05-17T18:27:15.492Z,96952.19
2023-05-17T18:29:42.983Z,96982.19
2023-05-17T18:32:10.119Z,96947.78
2023-05-17T18:34:37.227Z,96968.69
2023-05-17T18:37:05.149Z,96980.03
2023-05-17T18:39:32.055Z,96977.66
2023-05-17T18:41:59.395Z,96975.38
2023-05-17T18:44:26.454Z,96983.81
2023-05-17T18:46:54.227Z,96997.09
2023-05-17T18:49:21.623Z,96971.31
2023-05-17T18:51:48.602Z,96993.72
2023-05-17T18:54:15.610Z,96981.84
2023-05-17T18:56:42.497Z,96990.06
2023-05-17T18:59:09.599Z,96995.47
2023-05-17T19:01:37.158Z,96992.94
2023-05-17T19:04:04.400Z,97005.44
2023-05-17T19:06:32.032Z,97012.88
2023-05-17T19:08:59.846Z,97014.66
2023-05-17T19:11:28.878Z,96998.69
2023-05-17T19:13:56.240Z,97017.50
2023-05-17T19:16:23.177Z,97012.63
2023-05-17T19:18:50.455Z,96990.47
2023-05-17T19:21:17.687Z,97024.06
2023-05-17T19:23:44.902Z,97030.00
2023-05-17T19:26:12.144Z,97032.06
2023-05-17T19:28:40.181Z,97027.34
2023-05-17T19:31:08.569Z,97009.59
2023-05-17T19:33:37.885Z,97000.25
2023-05-17T19:36:04.960Z,97004.03
2023-05-17T19:38:33.567Z,97012.53
2023-05-17T19:41:01.747Z,97038.09
2023-05-17T19:43:28.826Z,97029.19
2023-05-17T19:45:55.985Z,97028.41
2023-05-17T19:48:24.445Z,97023.34
2023-05-17T19:50:51.747Z,97022.72
2023-05-17T19:53:18.775Z,97052.09
2023-05-17T19:55:46.003Z,97057.56
2023-05-17T19:58:12.887Z,97006.22
2023-05-17T20:00:39.864Z,97034.13
2023-05-17T20:03:06.889Z,97052.88
2023-05-17T20:05:34.104Z,97049.53
2023-05-17T20:08:02.841Z,97019.28
2023-05-17T20:10:32.672Z,97025.94
2023-05-17T20:12:59.916Z,97036.97
2023-05-17T20:15:26.979Z,97048.22
2023-05-17T20:17:54.028Z,97040.69
2023-05-17T20:20:21.013Z,97038.28
2023-05-17T20:22:48.498Z,97017.94
2023-05-17T20:25:15.447Z,97026.75
2023-05-17T20:27:42.391Z,97053.31
2023-05-17T20:30:09.679Z,97056.97
2023-05-17T20:32:36.816Z,97058.53
2023-05-17T20:35:03.902Z,97040.91
2023-05-17T20:37:30.975Z,97036.09
2023-05-17T20:40:00.472Z,97025.72
2023-05-17T20:42:28.435Z,97024.94
2023-05-17T20:44:55.832Z,97044.47
2023-05-17T20:47:23.085Z,97050.91
2023-05-17T20:49:50.545Z,97048.50
2023-05-17T20:52:27.756Z,97026.13
2023-05-17T20:54:58.614Z,97023.28
2023-05-17T20:57:26.013Z,97049.34
2023-05-17T20:59:53.234Z,97025.25
2023-05-17T21:02:22.652Z,97006.38
2023-05-17T21:04:49.624Z,97022.00
2023-05-17T21:07:17.677Z,97020.25
2023-05-17T21:09:44.612Z,96981.78
2023-05-17T21:12:11.670Z,97033.13
2023-05-17T21:14:38.588Z,97003.59
2023-05-17T21:17:05.731Z,97045.69
2023-05-17T21:19:32.827Z,97030.59
2023-05-17T21:21:59.797Z,97013.94
2023-05-17T21:24:26.735Z,97028.81
2023-05-17T21:26:53.620Z,97039.66
2023-05-17T21:29:20.669Z,97025.09
2023-05-17T21:31:47.635Z,97024.78
2023-05-17T21:34:14.562Z,97004.56
2023-05-17T21:36:41.537Z,97023.03
2023-05-17T21:39:08.413Z,97014.97
2023-05-17T21:41:35.441Z,97031.38
2023-05-17T21:44:02.391Z,96991.69
2023-05-17T21:46:29.348Z,96977.31
2023-05-17T21:48:56.306Z,97015.94
2023-05-17T21:51:23.296Z,97031.25
2023-05-17T21:53:53.007Z,96995.47
2023-05-17T21:56:19.955Z,97001.25
2023-05-17T21:58:46.870Z,97019.13
2023-05-17T22:01:13.970Z,97011.38
2023-05-17T22:03:41.077Z,97038.31
2023-05-17T22:06:08.069Z,97000.75
2023-05-17T22:08:35.068Z,97036.28
2023-05-17T22:11:02.681Z,97012.25
2023-05-17T22:13:32.901Z,97016.94
2023-05-17T22:15:59.910Z,97049.41
2023-05-17T22:18:32.269Z,97020.19
2023-05-17T22:20:59.615Z,97024.59
2023-05-17T22:23:26.769Z,97003.88
2023-05-17T22:25:53.737Z,97037.69
2023-05-17T22:28:20.639Z,97034.03
2023-05-17T22:30:48.825Z,97016.41
2023-05-17T22:33:15.802Z,97015.19
2023-05-17T22:35:42.652Z,97010.91
2023-05-17T22:38:09.645Z,97030.91
2023-05-17T22:40:36.647Z,97039.78
2023-05-17T22:43:03.595Z,97030.91
2023-05-17T22:45:33.504Z,96994.78
2023-05-17T22:48:03.209Z,97035.31
2023-05-17T22:50:34.775Z,97029.06
2023-05-17T22:53:01.777Z,97020.16
2023-05-17T22:55:29.002Z,97018.81
2023-05-17T22:57:56.612Z,97017.44
2023-05-17T23:00:24.399Z,97041.63
2023-05-17T23:02:51.389Z,97022.22
2023-05-17T23:05:18.747Z,97021.59
2023-05-17T23:07:47.631Z,97016.91
2023-05-17T23:10:15.674Z,97020.78
2023-05-17T23:12:42.669Z,97013.75
2023-05-17T23:15:10.686Z,97008.63
2023-05-17T23:17:39.195Z,97052.25
2023-05-17T23:20:13.228Z,97006.44
2023-05-17T23:22:40.294Z,97038.19
2023-05-17T23:25:07.585Z,97043.06
2023-05-17T23:27:35.589Z,97026.44
2023-05-17T23:30:03.347Z,97006.81
2023-05-17T23:32:34.176Z,97017.47
2023-05-17T23:35:05.104Z,97004.94
2023-05-17T23:37:33.736Z,97031.47
2023-05-17T23:40:00.639Z,97008.00
2023-05-17T23:42:29.323Z,97005.69
2023-05-17T23:44:56.280Z,97027.63
2023-05-17T23:47:23.364Z,97015.59
2023-05-17T23:49:50.358Z,97024.75
2023-05-17T23:52:19.307Z,97010.13
2023-05-17T23:54:47.103Z,97005.63
2023-05-17T23:57:14.332Z,97020.03
2023-05-17T23:59:41.269Z,97024.25
